Etusivu
METAR-TAF:

METAR-TAF

Lentoasemat :

Kelibia, Tunisia

Leveyspiiri: 36-51N, Pituuspiiri: 011-05E, korkeus merenpinnasta: 29 m

Tämänhetkinen sää

Tämä raportti tehtiin 1 tunti ja 0 minuuttia sitten, kello 10.00 UTC
Tuuli 7 kn eri suunnista puuskistuen 17 kn:hen
Lämpötila 18°C
Kosteus 77%
Ilmanpaine 1020 hPa
Näkyvyys 10 km tai enemmän
Muutamia pilviä 2000 ft:n korkeudessa
Hajanaisia pilviä 3000 ft:n korkeudessa

METAR: DTTL 201000Z VRB07G17KT 9999 FEW020 SCT030 18/14 Q1020

Aika: 12:00 (11:00 UTC)


TAF: puuttuu

Säähavainnot ja -ennusteet yli 4000 lentoasemalta (METAR- ja TAF-raportit).

Käytössä olevat sääasemat on merkitty karttaan keltaisilla ja punaisilla pisteillä.

Aseta hiiri pisteen päälle nähdäksesi sääaseman nimen.

Klikkaa sitten nähdäksesi säähavainnot ja -ennusteet.

Kartan vaihtaminen: klikkaa mustalla rastilla varustettuja vihreitä pisteitä, niin voit zoomata sisään; viivalla varustettua vihreää pistettä, niin voit zoomata ulos tai vihreitä nuolia, niin pääset viereisille kartoille.


METAR-TAF: